M I D A S
Marine Information and Data Acquisition System
Tripno 862 of the Zeeleeuw from 2005-03-14 08:39:53 to 2005-03-14 13:46:52
Back to CruiseResearch ActivitiesStationsMapUnderway DataData graphs

EquipmentUnitsComment
TimeDGPSUTC
LatitudeDGPSDM.mWGS84
LongitudeDGPSDM.mWGS84
HeadingGyrodeg 
SOGDGPSknotsSpeed over ground
COGDGPSdegCourse over ground
DepthEcho soundermeters200 kHz
Missing or incorrect values are displayed as -999
Navigation data collected by the RV Zeeleeuw from 2005-03-14 08:40:48 to 2005-03-14 13:56:38
                                                                                    Next 1000 lines
Time Latitude Longitude Heading SOG COG Depth
2005-03-14 08:40:57 51°13.621 2°56.046 112.8 1.9 294 7
2005-03-14 08:41:03 51°13.622 2°56.04 113.5 2.1 294 -999
2005-03-14 08:41:09 51°13.625 2°56.033 113.8 2.7 294 -999
2005-03-14 08:41:14 51°13.626 2°56.027 113.9 2.7 294 -999
2005-03-14 08:41:19 51°13.629 2°56.02 113.9 3.1 294 -999
2005-03-14 08:41:24 51°13.631 2°56.013 113.6 3.4 293 -999
2005-03-14 08:41:29 51°13.632 2°56.005 112.8 3.6 293 -999
2005-03-14 08:41:34 51°13.634 2°55.998 111.8 3.7 290 -999
2005-03-14 08:41:39 51°13.636 2°55.99 110.8 3.7 291 -999
2005-03-14 08:41:44 51°13.637 2°55.983 109.7 3.7 291 7.1
2005-03-14 08:41:49 51°13.639 2°55.978 108.4 3.2 288 -999
2005-03-14 08:41:54 51°13.639 2°55.976 108 3.2 288 5.2
2005-03-14 08:41:59 51°13.639 2°55.977 108.8 3.2 288 -999
2005-03-14 08:42:04 51°13.639 2°55.978 112.7 0.2 39 -999
2005-03-14 08:42:09 51°13.638 2°55.978 116.3 0.2 39 -999
2005-03-14 08:42:13 51°13.639 2°55.977 119.9 0.4 311 -999
2005-03-14 08:42:19 51°13.64 2°55.975 122.1 0.6 305 -999
2005-03-14 08:42:23 51°13.64 2°55.973 124.1 1.4 302 -999
2005-03-14 08:42:29 51°13.642 2°55.968 125 1.6 302 7.6
2005-03-14 08:42:34 51°13.644 2°55.964 125.6 2.1 302 7.6
2005-03-14 08:42:39 51°13.646 2°55.959 126.2 2.4 303 -999
2005-03-14 08:42:45 51°13.648 2°55.952 126.6 2.9 304 -999
2005-03-14 08:42:49 51°13.651 2°55.947 127.1 3.2 304 -999
2005-03-14 08:42:54 51°13.653 2°55.94 127.5 3.4 304 -999
2005-03-14 08:42:59 51°13.656 2°55.934 127.7 3.4 304 -999
2005-03-14 08:43:04 51°13.659 2°55.926 127.8 3.7 305 -999
2005-03-14 08:43:09 51°13.662 2°55.919 127.8 4 305 -999
2005-03-14 08:43:14 51°13.665 2°55.912 127.8 4 305 -999
2005-03-14 08:43:19 51°13.669 2°55.905 127.8 4.1 305 -999
2005-03-14 08:43:24 51°13.672 2°55.896 127.8 4.3 305 -999
2005-03-14 08:43:29 51°13.676 2°55.888 127.8 4.4 305 -999
2005-03-14 08:43:35 51°13.68 2°55.879 127.5 4.4 305 -999
2005-03-14 08:43:39 51°13.683 2°55.872 126.7 4.6 305 -999
2005-03-14 08:43:44 51°13.687 2°55.863 126.1 4.6 305 -999
2005-03-14 08:43:49 51°13.69 2°55.854 125.3 4.6 305 -999
2005-03-14 08:43:54 51°13.694 2°55.845 124.6 4.8 304 -999
2005-03-14 08:43:59 51°13.698 2°55.835 123.4 4.9 303 -999
2005-03-14 08:44:04 51°13.701 2°55.826 122.2 4.9 303 -999
2005-03-14 08:44:09 51°13.704 2°55.817 120.7 4.9 301 -999
2005-03-14 08:44:14 51°13.707 2°55.808 119.3 4.9 301 -999
2005-03-14 08:44:19 51°13.711 2°55.799 117.8 4.8 299 -999
2005-03-14 08:44:24 51°13.714 2°55.789 116.1 4.7 298 -999
2005-03-14 08:44:29 51°13.716 2°55.78 114.2 4.6 296 -999
2005-03-14 08:44:34 51°13.718 2°55.772 112.1 4.6 295 -999
2005-03-14 08:44:39 51°13.721 2°55.763 110.1 4.5 293 -999
2005-03-14 08:44:45 51°13.723 2°55.752 108.7 4.5 293 -999
2005-03-14 08:44:49 51°13.724 2°55.746 107.1 4 291 -999
2005-03-14 08:44:53 51°13.725 2°55.74 105.2 3.6 290 -999
2005-03-14 08:44:59 51°13.726 2°55.735 102.4 3 288 8
2005-03-14 08:45:03 51°13.727 2°55.732 99.6 2 291 -999
2005-03-14 08:45:09 51°13.728 2°55.731 95.7 2 291 -999
2005-03-14 08:45:14 51°13.729 2°55.731 90.5 0.5 356 -999
2005-03-14 08:45:19 51°13.73 2°55.733 84.1 0.5 356 -999
2005-03-14 08:45:24 51°13.731 2°55.735 75.6 1.2 54 -999
2005-03-14 08:45:29 51°13.732 2°55.736 69.7 1.2 40 -999
2005-03-14 08:45:34 51°13.732 2°55.736 66.8 0.7 39 5
2005-03-14 08:45:39 51°13.732 2°55.735 63.7 0.7 39 5.1
2005-03-14 08:45:43 51°13.732 2°55.734 61.5 0.4 280 5.2
2005-03-14 08:45:49 51°13.731 2°55.731 59.3 0.4 280 4.9
2005-03-14 08:45:54 51°13.73 2°55.727 57.4 1.3 247 -999
2005-03-14 08:45:59 51°13.728 2°55.723 55.6 1.7 242 -999
2005-03-14 08:46:03 51°13.727 2°55.721 53.9 1.9 243 9.4
2005-03-14 08:46:09 51°13.726 2°55.716 52.1 1.8 239 -999
2005-03-14 08:46:13 51°13.725 2°55.714 50.7 1.6 242 -999
2005-03-14 08:46:19 51°13.725 2°55.713 48.3 1.6 242 -999
2005-03-14 08:46:24 51°13.726 2°55.713 44.3 0.4 274 -999
2005-03-14 08:46:29 51°13.728 2°55.714 37.7 0.4 274 -999
2005-03-14 08:46:35 51°13.731 2°55.715 29.9 0.4 274 -999
2005-03-14 08:46:39 51°13.734 2°55.715 19.8 0.4 274 -999
2005-03-14 08:46:44 51°13.739 2°55.715 13 0.4 274 -999
2005-03-14 08:46:49 51°13.744 2°55.713 4.3 0.4 274 5.2
2005-03-14 08:46:53 51°13.748 2°55.711 357 3.5 349 8.2
2005-03-14 08:46:59 51°13.755 2°55.706 346.2 4.1 341 -999
2005-03-14 08:47:03 51°13.758 2°55.703 341 4.3 332 8.1
2005-03-14 08:47:09 51°13.765 2°55.698 338 4.3 332 8.2
2005-03-14 08:47:13 51°13.77 2°55.692 335.4 4.7 331 8.1
2005-03-14 08:47:19 51°13.778 2°55.685 334.2 5.2 330 8.1
2005-03-14 08:47:23 51°13.783 2°55.68 333.8 5.2 330 8.1
2005-03-14 08:47:29 51°13.793 2°55.671 334 5.2 330 8.1
2005-03-14 08:47:34 51°13.8 2°55.665 334.4 5.2 330 8.1
2005-03-14 08:47:39 51°13.808 2°55.658 334.7 6.5 331 8
2005-03-14 08:47:42 51°13.814 2°55.653 335.3 6.5 331 8
2005-03-14 08:47:49 51°13.825 2°55.643 336.2 6.9 332 8.1
2005-03-14 08:47:54 51°13.834 2°55.636 336.8 6.9 332 8
2005-03-14 08:47:57 51°13.841 2°55.631 337.4 7.3 334 8
2005-03-14 08:48:03 51°13.847 2°55.626 338 4 334 8
2005-03-14 08:48:09 51°13.863 2°55.613 337.5 2.2 334 7.9
2005-03-14 08:48:13 51°13.871 2°55.607 337.3 3.4 334 8
2005-03-14 08:48:18 51°13.881 2°55.599 337.5 7.9 333 7.9
2005-03-14 08:48:23 51°13.89 2°55.593 338.2 7.9 333 8
2005-03-14 08:48:29 51°13.902 2°55.584 338.8 7.9 334 7.9
2005-03-14 08:48:33 51°13.911 2°55.577 339.1 7.9 334 7.9
2005-03-14 08:48:39 51°13.922 2°55.568 339.2 8.1 334 7.9
2005-03-14 08:48:44 51°13.934 2°55.56 339.6 8.3 335 -999
2005-03-14 08:48:49 51°13.943 2°55.553 340 8.3 335 8.4
2005-03-14 08:48:54 51°13.954 2°55.545 340.1 8.3 335 -999
2005-03-14 08:48:59 51°13.965 2°55.536 339.4 8.7 334 -999
2005-03-14 08:49:04 51°13.977 2°55.527 339.3 8.7 334 -999
2005-03-14 08:49:09 51°13.987 2°55.52 339.4 8.7 334 -999
2005-03-14 08:49:13 51°13.997 2°55.512 339.5 8.9 336 -999
2005-03-14 08:49:19 51°14.011 2°55.502 339.1 8.9 336 -999
2005-03-14 08:49:23 51°14.018 2°55.496 339 8.9 334 7.9
2005-03-14 08:49:29 51°14.032 2°55.486 339 8.9 334 7.8
2005-03-14 08:49:33 51°14.042 2°55.478 339.2 8.9 335 7.8
2005-03-14 08:49:38 51°14.053 2°55.469 339.4 9 334 8
2005-03-14 08:49:43 51°14.065 2°55.461 339.6 9 334 7.8
2005-03-14 08:49:49 51°14.077 2°55.452 339.8 9 335 7.9
2005-03-14 08:49:54 51°14.089 2°55.443 339.6 9 335 8
2005-03-14 08:49:57 51°14.097 2°55.436 339.1 9.4 334 8
2005-03-14 08:50:04 51°14.113 2°55.424 338.9 9.4 334 8
2005-03-14 08:50:09 51°14.125 2°55.414 338.7 9.8 333 8.1
2005-03-14 08:50:13 51°14.136 2°55.406 339.3 9.8 333 8.1
2005-03-14 08:50:19 51°14.15 2°55.394 339.3 10.1 333 9.1
2005-03-14 08:50:23 51°14.16 2°55.385 337.9 10.1 333 8.1
2005-03-14 08:50:29 51°14.175 2°55.371 336 10.1 333 8.1
2005-03-14 08:50:34 51°14.188 2°55.358 334.9 10.3 329 8.1
2005-03-14 08:50:39 51°14.199 2°55.346 333.2 10.3 327 8.2
2005-03-14 08:50:43 51°14.21 2°55.334 331.6 10.5 324 9.1
2005-03-14 08:50:49 51°14.222 2°55.318 329.3 10.6 322 8.6
2005-03-14 08:50:54 51°14.233 2°55.302 327 10.7 321 -999
2005-03-14 08:50:59 51°14.244 2°55.286 324.7 10.8 319 9.1
2005-03-14 08:51:03 51°14.253 2°55.272 323 10.8 319 8.1
2005-03-14 08:51:09 51°14.266 2°55.251 320.5 10.8 319 9.1
2005-03-14 08:51:13 51°14.275 2°55.234 318.2 10.8 319 9
2005-03-14 08:51:19 51°14.286 2°55.213 316.5 11.1 311 8.9
2005-03-14 08:51:23 51°14.295 2°55.196 316 11.2 311 8.6
2005-03-14 08:51:29 51°14.306 2°55.175 315.3 11.3 310 8.5
2005-03-14 08:51:33 51°14.315 2°55.158 314.5 11.3 310 8.1
2005-03-14 08:51:39 51°14.327 2°55.137 314.3 11.3 310 8.5
2005-03-14 08:51:43 51°14.336 2°55.121 315.4 11.4 311 8.4
2005-03-14 08:51:49 51°14.348 2°55.098 316.3 11.5 312 8.2
2005-03-14 08:51:53 51°14.358 2°55.082 316.4 11.5 312 8.3
2005-03-14 08:51:59 51°14.37 2°55.061 317.2 11.6 313 8.3
2005-03-14 08:52:03 51°14.38 2°55.044 317.5 11.6 313 8.5
2005-03-14 08:52:09 51°14.392 2°55.025 318.6 11.8 315 8.7
2005-03-14 08:52:13 51°14.403 2°55.009 320.5 11.9 316 8.7
2005-03-14 08:52:19 51°14.418 2°54.989 323 11.9 316 8.8
2005-03-14 08:52:23 51°14.429 2°54.973 324.9 12.3 319 8.8
2005-03-14 08:52:29 51°14.444 2°54.954 325.8 12.3 319 8.8
2005-03-14 08:52:33 51°14.456 2°54.938 326.3 12.3 319 8.8
2005-03-14 08:52:38 51°14.47 2°54.922 327.3 12.5 320 8.7
2005-03-14 08:52:44 51°14.486 2°54.904 328.9 12.6 324 8.4
2005-03-14 08:52:49 51°14.501 2°54.889 332.9 12.6 327 8.4
2005-03-14 08:52:53 51°14.514 2°54.876 336.2 12.6 328 8.4
2005-03-14 08:52:59 51°14.53 2°54.858 336.4 12.6 326 8.2
2005-03-14 08:53:03 51°14.542 2°54.846 336.8 12.6 326 8.1
2005-03-14 08:53:09 51°14.56 2°54.829 339.2 12.6 329 8.1
2005-03-14 08:53:13 51°14.574 2°54.818 341.4 12.6 329 8.1
2005-03-14 08:53:19 51°14.591 2°54.804 343.7 12.6 333 7.9
2005-03-14 08:53:23 51°14.604 2°54.795 345.7 12.3 334 7.9
2005-03-14 08:53:28 51°14.618 2°54.786 347.6 11.1 337 7.9
2005-03-14 08:53:33 51°14.632 2°54.779 350.7 11.1 337 7.8
2005-03-14 08:53:39 51°14.646 2°54.774 355.3 10 346 7.8
2005-03-14 08:53:43 51°14.657 2°54.771 0.5 9.2 349 8
2005-03-14 08:53:49 51°14.668 2°54.769 4.7 8.2 352 8.1
2005-03-14 08:53:53 51°14.677 2°54.767 7 7.7 353 8.1
2005-03-14 08:53:59 51°14.688 2°54.765 8.7 7.7 353 8.2
2005-03-14 08:54:03 51°14.694 2°54.763 8.9 6.5 353 8.2
2005-03-14 08:54:08 51°14.703 2°54.761 9 6 350 8.1
2005-03-14 08:54:13 51°14.711 2°54.759 8.5 5.7 350 8.1
2005-03-14 08:54:19 51°14.718 2°54.756 8 5.7 350 8.1
2005-03-14 08:54:24 51°14.725 2°54.753 7.5 5.7 350 8.2
2005-03-14 08:54:28 51°14.73 2°54.75 6.7 4.9 345 8.1
2005-03-14 08:54:33 51°14.736 2°54.748 6 4.9 345 8.2
2005-03-14 08:54:39 51°14.743 2°54.744 4.9 4.6 343 8.2
2005-03-14 08:54:43 51°14.747 2°54.741 3.7 4.2 340 8.3
2005-03-14 08:54:47 51°14.751 2°54.739 2.1 4.1 338 8.1
2005-03-14 08:54:53 51°14.757 2°54.734 1.1 4.1 338 8
2005-03-14 08:54:58 51°14.762 2°54.73 359.9 4.1 338 8
2005-03-14 08:55:03 51°14.766 2°54.727 358.7 3.7 331 8
2005-03-14 08:55:09 51°14.772 2°54.722 357.6 3.5 332 8
2005-03-14 08:55:13 51°14.775 2°54.719 356.6 3.5 329 8
2005-03-14 08:55:19 51°14.779 2°54.714 355.5 3.3 327 8.1
2005-03-14 08:55:23 51°14.782 2°54.711 354.9 3.3 327 8.1
2005-03-14 08:55:29 51°14.786 2°54.706 353.7 3.2 324 8
2005-03-14 08:55:33 51°14.789 2°54.702 352.5 3.1 324 8.1
2005-03-14 08:55:39 51°14.792 2°54.698 351.5 3.1 324 8
2005-03-14 08:55:43 51°14.795 2°54.694 350.4 3 323 8
2005-03-14 08:55:49 51°14.798 2°54.689 349.6 2.9 318 8.1
2005-03-14 08:55:53 51°14.801 2°54.685 348.9 2.9 318 8.2
2005-03-14 08:55:59 51°14.804 2°54.681 348.2 2.9 318 8.1
2005-03-14 08:56:03 51°14.806 2°54.677 347.8 2.7 317 8.1
2005-03-14 08:56:09 51°14.809 2°54.672 347.1 2.7 316 8
2005-03-14 08:56:13 51°14.811 2°54.669 346.9 2.6 315 8.1
2005-03-14 08:56:19 51°14.814 2°54.664 346.5 2.6 315 8.1
2005-03-14 08:56:24 51°14.817 2°54.66 346.1 2.6 315 8
2005-03-14 08:56:29 51°14.819 2°54.656 346.1 2.6 315 8
2005-03-14 08:56:33 51°14.821 2°54.653 345.7 2.4 313 8.1
2005-03-14 08:56:39 51°14.824 2°54.648 345.7 2.4 312 8.1
2005-03-14 08:56:44 51°14.826 2°54.644 345.5 2.4 312 8
2005-03-14 08:56:47 51°14.827 2°54.642 345.5 2.3 311 8
2005-03-14 08:56:53 51°14.83 2°54.637 345.3 2.3 312 8.1
2005-03-14 08:56:59 51°14.832 2°54.633 345.1 2.3 310 8
2005-03-14 08:57:04 51°14.834 2°54.629 344.9 2.2 311 8
2005-03-14 08:57:09 51°14.836 2°54.625 344.7 2.2 311 8
2005-03-14 08:57:13 51°14.838 2°54.622 344.5 2.2 310 7.9
2005-03-14 08:57:18 51°14.839 2°54.618 344 2.2 310 8
2005-03-14 08:57:23 51°14.841 2°54.615 343.7 2.1 307 8
2005-03-14 08:57:29 51°14.843 2°54.611 343.3 2.1 306 8
2005-03-14 08:57:33 51°14.844 2°54.608 342.6 2 307 8
2005-03-14 08:57:38 51°14.846 2°54.604 342.4 2.1 306 8
2005-03-14 08:57:43 51°14.848 2°54.6 342 2.1 305 8
2005-03-14 08:57:49 51°14.85 2°54.596 341.6 2.1 307 8
2005-03-14 08:57:53 51°14.852 2°54.592 341.5 2.1 307 8
2005-03-14 08:57:59 51°14.856 2°54.587 342.6 2.8 315 8.1
2005-03-14 08:58:03 51°14.859 2°54.584 345 3 321 8
2005-03-14 08:58:09 51°14.863 2°54.579 347.1 3.4 324 8
2005-03-14 08:58:13 51°14.868 2°54.575 348.8 3.8 328 8
2005-03-14 08:58:17 51°14.873 2°54.57 349.2 4.3 331 8
2005-03-14 08:58:23 51°14.881 2°54.564 348.9 5.2 332 7.9
2005-03-14 08:58:29 51°14.889 2°54.557 348.3 5.2 332 8
2005-03-14 08:58:33 51°14.896 2°54.552 348.1 6.1 334 7.9
2005-03-14 08:58:38 51°14.905 2°54.545 347.9 6.8 334 7.8
2005-03-14 08:58:44 51°14.917 2°54.537 348 7.7 336 7.8
2005-03-14 08:58:49 51°14.928 2°54.529 348.3 8.5 336 7.7
2005-03-14 08:58:53 51°14.939 2°54.522 348.2 8.8 336 -999
2005-03-14 08:58:59 51°14.953 2°54.513 347.9 9.1 337 7.5
2005-03-14 08:59:03 51°14.963 2°54.507 347.9 10.1 338 7.3
2005-03-14 08:59:09 51°14.98 2°54.496 348.2 10.1 338 7.2
2005-03-14 08:59:14 51°14.994 2°54.487 348.2 10.6 338 7.1
2005-03-14 08:59:19 51°15.008 2°54.478 347.9 10.7 338 7
2005-03-14 08:59:23 51°15.019 2°54.471 347.6 10.7 338 6.9
2005-03-14 08:59:29 51°15.037 2°54.459 347.7 11.3 337 6.8
2005-03-14 08:59:33 51°15.05 2°54.45 347.3 11.4 337 6.8
2005-03-14 08:59:38 51°15.064 2°54.44 346.7 11.5 336 7
2005-03-14 08:59:43 51°15.079 2°54.428 345.9 11.5 336 6.9
2005-03-14 08:59:49 51°15.095 2°54.415 344.7 11.7 334 6.8
2005-03-14 08:59:53 51°15.108 2°54.404 343.4 11.8 332 6.9
2005-03-14 08:59:58 51°15.122 2°54.391 342 11.9 331 6.9
2005-03-14 09:00:03 51°15.137 2°54.377 341.2 12.1 330 7
2005-03-14 09:00:09 51°15.153 2°54.363 340.4 12.1 330 6.9
2005-03-14 09:00:14 51°15.168 2°54.349 340 12.2 330 7
2005-03-14 09:00:19 51°15.182 2°54.336 339.8 12.2 330 7
2005-03-14 09:00:23 51°15.196 2°54.324 340.3 12.2 332 7
2005-03-14 09:00:29 51°15.213 2°54.311 341.8 12.2 333 7.1
2005-03-14 09:00:33 51°15.226 2°54.3 342.5 12.2 333 7.1
2005-03-14 09:00:38 51°15.242 2°54.289 343.8 12.3 334 5.4
2005-03-14 09:00:43 51°15.258 2°54.277 344.7 12.4 335 7.2
2005-03-14 09:00:49 51°15.276 2°54.263 345.2 12.5 336 7.3
2005-03-14 09:00:53 51°15.289 2°54.254 345.5 12.6 335 7.3
2005-03-14 09:00:58 51°15.305 2°54.241 345.2 12.6 334 7.3
2005-03-14 09:01:03 51°15.319 2°54.23 344.3 12.6 333 7.4
2005-03-14 09:01:09 51°15.338 2°54.214 343.6 12.7 333 7.5
2005-03-14 09:01:13 51°15.35 2°54.203 343.1 12.7 332 5.6
2005-03-14 09:01:18 51°15.367 2°54.188 342.4 12.7 331 5.7
2005-03-14 09:01:23 51°15.383 2°54.174 341.5 12.8 331 7.5
2005-03-14 09:01:29 51°15.4 2°54.159 341.5 12.8 331 7.6
2005-03-14 09:01:33 51°15.414 2°54.147 341.6 12.9 331 7.8
2005-03-14 09:01:39 51°15.431 2°54.133 342.3 12.9 332 7.9
2005-03-14 09:01:43 51°15.446 2°54.122 343.2 12.9 333 7.9
2005-03-14 09:01:49 51°15.464 2°54.109 344.4 12.9 335 8
2005-03-14 09:01:53 51°15.479 2°54.099 346 13 336 8
2005-03-14 09:01:59 51°15.498 2°54.087 346.9 13.1 338 8.1
2005-03-14 09:02:03 51°15.513 2°54.078 348.3 13 339 8.1
2005-03-14 09:02:09 51°15.531 2°54.067 349.7 13 341 8.2
2005-03-14 09:02:13 51°15.546 2°54.058 350.3 13 339 8.3
2005-03-14 09:02:19 51°15.565 2°54.046 350.2 13 339 8.4
2005-03-14 09:02:22 51°15.577 2°54.038 349.1 13.1 338 8.3
2005-03-14 09:02:29 51°15.599 2°54.022 347.6 13.1 337 8.3
2005-03-14 09:02:33 51°15.613 2°54.01 345.8 13.2 333 8.5
2005-03-14 09:02:39 51°15.631 2°53.994 344 13.3 331 8.6
2005-03-14 09:02:43 51°15.644 2°53.982 342.4 13.4 331 8.6
2005-03-14 09:02:49 51°15.663 2°53.964 341.7 13.4 330 8.7
2005-03-14 09:02:54 51°15.679 2°53.95 341.1 13.4 330 8.7
2005-03-14 09:02:59 51°15.696 2°53.935 341.1 13.4 330 8.8
2005-03-14 09:03:03 51°15.709 2°53.924 341.9 13.4 331 8.9
2005-03-14 09:03:09 51°15.729 2°53.908 342.9 13.4 332 8.9
2005-03-14 09:03:13 51°15.743 2°53.895 343.8 13.4 333 9
2005-03-14 09:03:19 51°15.762 2°53.881 344.4 13.4 334 9
2005-03-14 09:03:23 51°15.777 2°53.869 344.9 13.3 334 9.1
2005-03-14 09:03:28 51°15.793 2°53.856 345.4 13.4 334 9.1
2005-03-14 09:03:34 51°15.812 2°53.841 345.4 13.4 334 9.2
2005-03-14 09:03:39 51°15.828 2°53.828 344.8 13.4 333 9.3
2005-03-14 09:03:44 51°15.844 2°53.814 344 13.4 332 9.3
2005-03-14 09:03:49 51°15.861 2°53.799 343.3 13.4 331 9.4
2005-03-14 09:03:53 51°15.876 2°53.786 343 13.4 331 9.4
2005-03-14 09:03:58 51°15.892 2°53.772 342.7 13.5 331 9.4
2005-03-14 09:04:03 51°15.906 2°53.758 342.5 13.5 331 9.4
2005-03-14 09:04:09 51°15.926 2°53.741 342.4 13.5 330 9.4
2005-03-14 09:04:13 51°15.94 2°53.727 342 13.5 330 9.5
2005-03-14 09:04:18 51°15.957 2°53.712 341.5 13.5 329 9.6
2005-03-14 09:04:23 51°15.971 2°53.698 341.1 13.5 329 9.5
2005-03-14 09:04:29 51°15.992 2°53.678 340.7 13.5 329 9.6
2005-03-14 09:04:33 51°16.004 2°53.665 340.3 13.5 328 9.6
2005-03-14 09:04:39 51°16.022 2°53.648 339.9 13.5 328 9.6
2005-03-14 09:04:43 51°16.036 2°53.633 339.7 13.5 328 9.6
2005-03-14 09:04:49 51°16.054 2°53.616 339.7 13.4 328 9.7
2005-03-14 09:04:53 51°16.068 2°53.602 339.8 13.5 329 9.7
2005-03-14 09:04:59 51°16.085 2°53.586 340.2 13.5 329 9.7
2005-03-14 09:05:04 51°16.101 2°53.571 340.3 13.4 329 9.7
2005-03-14 09:05:09 51°16.117 2°53.555 340.7 13.3 329 9.7
2005-03-14 09:05:14 51°16.134 2°53.541 340.7 13.3 330 9.8
2005-03-14 09:05:19 51°16.149 2°53.526 340.9 13.3 330 9.9
2005-03-14 09:05:23 51°16.162 2°53.514 340.9 13.4 329 9.9
2005-03-14 09:05:29 51°16.181 2°53.496 341 13.3 330 9.9
2005-03-14 09:05:33 51°16.195 2°53.482 341 13.3 330 10
2005-03-14 09:05:39 51°16.213 2°53.465 340.8 13.3 329 10
2005-03-14 09:05:44 51°16.23 2°53.449 340.4 13.3 329 10
2005-03-14 09:05:49 51°16.244 2°53.435 340.2 13.3 328 9.9
2005-03-14 09:05:53 51°16.258 2°53.421 340 13.3 328 10
2005-03-14 09:05:58 51°16.274 2°53.405 340 13.3 328 10
2005-03-14 09:06:03 51°16.29 2°53.39 340 13.3 328 10.1
2005-03-14 09:06:09 51°16.307 2°53.373 340.1 13.3 328 10.1
2005-03-14 09:06:13 51°16.321 2°53.359 340.2 13.3 329 10.1
2005-03-14 09:06:18 51°16.337 2°53.344 340.4 13.3 329 10.1
2005-03-14 09:06:23 51°16.351 2°53.331 340.7 13.2 329 10.1
2005-03-14 09:06:29 51°16.371 2°53.312 340.8 13.2 329 10.2
2005-03-14 09:06:33 51°16.384 2°53.3 340.7 13.2 329 10.4
2005-03-14 09:06:38 51°16.4 2°53.285 340.7 13.3 330 10.2
2005-03-14 09:06:43 51°16.414 2°53.271 340.7 13.3 330 10.2
2005-03-14 09:06:48 51°16.432 2°53.255 340.7 13.3 329 10.2
2005-03-14 09:06:53 51°16.448 2°53.24 340.7 13.3 330 10.3
2005-03-14 09:06:59 51°16.465 2°53.223 340.4 13.3 330 10.2
2005-03-14 09:07:03 51°16.48 2°53.21 340.4 13.2 329 10.2
2005-03-14 09:07:09 51°16.497 2°53.193 340.2 13.3 328 10.3
2005-03-14 09:07:13 51°16.509 2°53.181 339.8 13.2 329 10.2
2005-03-14 09:07:18 51°16.526 2°53.163 339.6 13.3 328 10.3
2005-03-14 09:07:22 51°16.539 2°53.151 339.4 13.3 328 10.3
2005-03-14 09:07:28 51°16.558 2°53.132 339.4 13.3 328 10.3
2005-03-14 09:07:33 51°16.573 2°53.117 339.3 13.3 328 10.3
2005-03-14 09:07:38 51°16.589 2°53.101 339.3 13.2 328 10
2005-03-14 09:07:43 51°16.603 2°53.088 339.7 13.2 329 10.1
2005-03-14 09:07:49 51°16.624 2°53.069 340.2 13.2 329 10
2005-03-14 09:07:53 51°16.637 2°53.057 340.8 13.2 329 9.9
2005-03-14 09:07:59 51°16.655 2°53.042 341.2 13.2 331 9.9
2005-03-14 09:08:03 51°16.668 2°53.03 341.6 13.2 331 9.8
2005-03-14 09:08:08 51°16.685 2°53.015 341.6 13.2 331 9.6
2005-03-14 09:08:13 51°16.701 2°53.002 341.4 13.1 332 9.7
2005-03-14 09:08:19 51°16.719 2°52.988 341.6 13.1 332 9.5
2005-03-14 09:08:23 51°16.734 2°52.976 342.5 13.1 334 9.4
2005-03-14 09:08:29 51°16.752 2°52.962 342.2 13.1 333 9.2
2005-03-14 09:08:33 51°16.766 2°52.949 341.4 13.1 332 9
2005-03-14 09:08:39 51°16.783 2°52.934 340.6 13.1 332 8.7
2005-03-14 09:08:42 51°16.794 2°52.924 340 13.1 332 8.3
2005-03-14 09:08:48 51°16.813 2°52.907 339.3 12.9 330 7.7
2005-03-14 09:08:53 51°16.828 2°52.892 339 12.9 330 7.5
2005-03-14 09:08:58 51°16.842 2°52.879 338.7 12.5 329 7.4
2005-03-14 09:09:03 51°16.856 2°52.866 338.5 12.3 329 7.3
2005-03-14 09:09:09 51°16.875 2°52.848 338.3 12.3 329 7.5
2005-03-14 09:09:13 51°16.887 2°52.836 338.1 12.3 329 7.4
2005-03-14 09:09:19 51°16.903 2°52.82 337.6 12.4 329 5.5
2005-03-14 09:09:22 51°16.913 2°52.811 337.2 12.4 329 7.4
2005-03-14 09:09:29 51°16.932 2°52.793 337 12.5 329 7.5
2005-03-14 09:09:34 51°16.948 2°52.78 339.3 12.5 333 7.7
2005-03-14 09:09:38 51°16.962 2°52.77 341.9 12.6 334 7.7
2005-03-14 09:09:43 51°16.979 2°52.76 344.7 12.6 334 7.7
2005-03-14 09:09:49 51°16.997 2°52.75 347.2 12.6 341 7.9
2005-03-14 09:09:54 51°17.014 2°52.742 349.5 12.6 341 8.1
2005-03-14 09:09:59 51°17.031 2°52.734 351.4 12.6 344 8.2
2005-03-14 09:10:02 51°17.043 2°52.729 353.1 12.7 345 8.3
2005-03-14 09:10:09 51°17.065 2°52.72 353.9 12.7 345 8.3
2005-03-14 09:10:14 51°17.082 2°52.712 354.2 12.8 344 8.3
2005-03-14 09:10:19 51°17.099 2°52.703 353.3 12.9 343 8.2
2005-03-14 09:10:24 51°17.116 2°52.694 352 12.9 342 8.1
2005-03-14 09:10:29 51°17.133 2°52.685 350.6 12.9 342 8
2005-03-14 09:10:33 51°17.148 2°52.676 349.6 12.9 342 7.7
2005-03-14 09:10:39 51°17.165 2°52.665 348.9 12.7 340 7.9
2005-03-14 09:10:44 51°17.182 2°52.657 348.7 12.5 340 8.3
2005-03-14 09:10:49 51°17.198 2°52.65 350.5 12.6 343 8
2005-03-14 09:10:54 51°17.216 2°52.643 352.4 12.5 344 7.9
2005-03-14 09:10:59 51°17.233 2°52.637 354.9 12.6 348 7.9
2005-03-14 09:11:03 51°17.248 2°52.633 356.9 12.6 348 8
2005-03-14 09:11:09 51°17.269 2°52.628 358.5 12.4 351 8
2005-03-14 09:11:14 51°17.284 2°52.624 359.6 12.5 351 8
2005-03-14 09:11:19 51°17.301 2°52.62 0.7 12.5 352 8
2005-03-14 09:11:23 51°17.317 2°52.617 1 12.5 352 8.2
2005-03-14 09:11:29 51°17.337 2°52.611 1.1 12.5 352 8.3
2005-03-14 09:11:34 51°17.353 2°52.607 0.3 12.6 350 8.3
2005-03-14 09:11:39 51°17.37 2°52.601 359.1 12.7 348 8.2
2005-03-14 09:11:43 51°17.386 2°52.595 357.5 12.7 348 8.4
2005-03-14 09:11:48 51°17.403 2°52.588 356.4 12.7 347 8.4
2005-03-14 09:11:53 51°17.42 2°52.582 355.6 12.7 346 8.3
2005-03-14 09:11:59 51°17.439 2°52.574 355.2 12.7 346 8.4
2005-03-14 09:12:03 51°17.454 2°52.568 355.1 12.8 346 8.4
2005-03-14 09:12:09 51°17.473 2°52.562 355.2 12.7 347 8.4
2005-03-14 09:12:13 51°17.489 2°52.557 356 12.8 348 8.4
2005-03-14 09:12:19 51°17.508 2°52.551 356.9 12.7 348 8.5
2005-03-14 09:12:22 51°17.52 2°52.548 357.6 12.7 348 8.5
2005-03-14 09:12:29 51°17.543 2°52.541 358.5 12.8 350 8.5
2005-03-14 09:12:34 51°17.561 2°52.536 358.5 12.8 350 8.5
2005-03-14 09:12:39 51°17.578 2°52.53 358 12.7 350 8.7
2005-03-14 09:12:42 51°17.59 2°52.527 357.5 12.8 348 8.6
2005-03-14 09:12:49 51°17.612 2°52.518 356.6 12.8 347 8.5
2005-03-14 09:12:53 51°17.628 2°52.512 356.1 12.8 347 8.6
2005-03-14 09:12:58 51°17.645 2°52.506 355.6 12.8 346 8.6
2005-03-14 09:13:03 51°17.661 2°52.5 355.1 12.8 347 8.7
2005-03-14 09:13:09 51°17.683 2°52.492 355.2 12.8 347 8.7
2005-03-14 09:13:13 51°17.697 2°52.486 355.5 12.7 347 8.6
2005-03-14 09:13:19 51°17.716 2°52.48 356.2 12.7 347 8.5
2005-03-14 09:13:24 51°17.733 2°52.474 356.7 12.8 348 8.7
2005-03-14 09:13:29 51°17.75 2°52.469 357 12.7 349 8.6
2005-03-14 09:13:34 51°17.767 2°52.463 357.5 12.7 349 8.6
2005-03-14 09:13:38 51°17.783 2°52.458 357.5 12.6 348 8.6
2005-03-14 09:13:44 51°17.802 2°52.452 357.4 12.7 349 8.7
2005-03-14 09:13:49 51°17.819 2°52.446 357.3 12.7 348 8.6
2005-03-14 09:13:54 51°17.836 2°52.439 356.8 12.7 348 8.8
2005-03-14 09:13:57 51°17.848 2°52.434 355.7 12.8 346 8.7
2005-03-14 09:14:03 51°17.867 2°52.427 355.8 12.8 346 8.7
2005-03-14 09:14:09 51°17.888 2°52.421 356.3 13.3 347 8.7
2005-03-14 09:14:13 51°17.903 2°52.417 358.1 13.3 347 8.8
2005-03-14 09:14:18 51°17.921 2°52.414 359.8 13.3 347 8.8
2005-03-14 09:14:23 51°17.936 2°52.41 1.1 12.6 353 8.9
2005-03-14 09:14:29 51°17.958 2°52.408 2.6 12.6 353 8.8
2005-03-14 09:14:33 51°17.973 2°52.407 3.8 12.7 356 8.8
2005-03-14 09:14:38 51°17.99 2°52.407 5.9 12.7 356 8.8
2005-03-14 09:14:43 51°18.006 2°52.407 7.9 12.6 -999 8.9
2005-03-14 09:14:49 51°18.027 2°52.409 9.5 12.6 -999 8.9
2005-03-14 09:14:53 51°18.042 2°52.41 11.3 12.4 3 8.9
2005-03-14 09:14:58 51°18.06 2°52.413 12.4 12.6 5 9
2005-03-14 09:15:03 51°18.076 2°52.415 13 12.6 5 8.9
2005-03-14 09:15:09 51°18.096 2°52.418 12.4 12.7 4 9
2005-03-14 09:15:13 51°18.112 2°52.419 12.2 12.5 4 9
2005-03-14 09:15:19 51°18.131 2°52.424 13 12.5 5 9.1
2005-03-14 09:15:23 51°18.145 2°52.427 14.7 12.5 8 9.1
2005-03-14 09:15:29 51°18.167 2°52.434 16.6 12.6 8 9.2
2005-03-14 09:15:33 51°18.18 2°52.439 18.4 12.5 12 9.1
2005-03-14 09:15:38 51°18.197 2°52.445 19.7 12.5 13 9.2
2005-03-14 09:15:43 51°18.214 2°52.452 20.5 12.6 13 9.2
2005-03-14 09:15:49 51°18.232 2°52.459 21 12.3 14 9.3
2005-03-14 09:15:54 51°18.249 2°52.465 21.9 12.4 14 9.2
2005-03-14 09:15:59 51°18.266 2°52.471 21.6 12.4 14 9.3
2005-03-14 09:16:03 51°18.281 2°52.477 21 12.5 13 9.3
2005-03-14 09:16:09 51°18.299 2°52.486 20.4 12.4 14 9.3
2005-03-14 09:16:14 51°18.317 2°52.497 22.4 12.4 14 9.3
2005-03-14 09:16:19 51°18.331 2°52.507 27.3 12.3 23 9.3
2005-03-14 09:16:22 51°18.341 2°52.516 30.3 12.3 23 9.4
2005-03-14 09:16:29 51°18.36 2°52.533 34.1 12.2 29 9.4
2005-03-14 09:16:34 51°18.374 2°52.548 36.4 12.2 29 9.5
2005-03-14 09:16:39 51°18.388 2°52.563 37.5 12.1 33 9.5
2005-03-14 09:16:43 51°18.401 2°52.578 39.9 12.3 36 9.5
2005-03-14 09:16:49 51°18.415 2°52.596 41.3 12.3 36 9.5
2005-03-14 09:16:53 51°18.427 2°52.611 42.5 12.2 38 9.6
2005-03-14 09:16:58 51°18.441 2°52.627 43.5 12.2 38 9.6
2005-03-14 09:17:03 51°18.452 2°52.643 44.1 12.1 39 9.6
2005-03-14 09:17:09 51°18.468 2°52.663 44.7 12.1 40 9.6
2005-03-14 09:17:14 51°18.481 2°52.68 45.3 12.2 41 9.7
2005-03-14 09:17:19 51°18.494 2°52.698 45 12.1 39 9.6
2005-03-14 09:17:23 51°18.506 2°52.713 45.1 12.2 40 9.7
2005-03-14 09:17:27 51°18.515 2°52.725 44.6 12.2 39 9.7
2005-03-14 09:17:33 51°18.532 2°52.747 44.3 12.2 39 9.7
2005-03-14 09:17:39 51°18.547 2°52.766 44.2 12.3 40 9.8
2005-03-14 09:17:44 51°18.56 2°52.783 43.7 12.3 39 9.8
2005-03-14 09:17:49 51°18.573 2°52.802 44.8 12.2 42 9.8
2005-03-14 09:17:53 51°18.582 2°52.816 46.4 12.2 41 9.8
2005-03-14 09:17:59 51°18.597 2°52.838 47.8 12.2 41 9.8
2005-03-14 09:18:03 51°18.607 2°52.854 48.8 12.2 44 9.8
2005-03-14 09:18:09 51°18.621 2°52.876 49.1 12.2 44 9.8
2005-03-14 09:18:13 51°18.632 2°52.893 49.1 12.2 44 9.8
2005-03-14 09:18:19 51°18.646 2°52.914 49.1 12.2 45 9.8
2005-03-14 09:18:23 51°18.657 2°52.931 49.3 12.2 44 9.8
2005-03-14 09:18:27 51°18.665 2°52.943 49.3 12.1 43 9.9
2005-03-14 09:18:33 51°18.681 2°52.967 49 12.1 44 9.9
2005-03-14 09:18:39 51°18.694 2°52.988 48.6 12.1 43 9.9
2005-03-14 09:18:44 51°18.706 2°53.007 48.8 12.2 44 9.9
2005-03-14 09:18:49 51°18.718 2°53.027 50.5 12.2 44 9.9
2005-03-14 09:18:53 51°18.728 2°53.046 51.8 12.2 44 9.9
2005-03-14 09:18:59 51°18.739 2°53.068 53.7 12.2 50 9.9
2005-03-14 09:19:04 51°18.749 2°53.09 55.3 12.1 52 10
2005-03-14 09:19:09 51°18.758 2°53.113 58 12.1 56 10
2005-03-14 09:19:13 51°18.765 2°53.133 60.4 12.1 59 10
2005-03-14 09:19:19 51°18.774 2°53.16 63.1 12.1 59 10
2005-03-14 09:19:23 51°18.78 2°53.179 65.3 12.1 63 10
2005-03-14 09:19:29 51°18.789 2°53.207 66.3 12.1 64 10
2005-03-14 09:19:33 51°18.795 2°53.229 67.3 12.1 66 10.1
2005-03-14 09:19:39 51°18.803 2°53.256 67.6 12 64 10
2005-03-14 09:19:44 51°18.81 2°53.28 67.5 12.1 65 10
2005-03-14 09:19:49 51°18.817 2°53.306 67.5 12.1 65 10.1
2005-03-14 09:19:54 51°18.824 2°53.328 67.5 12 65 10.1
2005-03-14 09:19:59 51°18.831 2°53.352 67.5 12 65 10
2005-03-14 09:20:03 51°18.837 2°53.371 67.3 12.1 65 10.1
2005-03-14 09:20:09 51°18.846 2°53.402 67.4 12.1 65 10.1
2005-03-14 09:20:13 51°18.852 2°53.421 67.4 12.1 65 10
2005-03-14 09:20:19 51°18.86 2°53.448 66.8 12 64 10.1
2005-03-14 09:20:23 51°18.867 2°53.469 66.4 12 64 10.1
2005-03-14 09:20:29 51°18.874 2°53.495 66.7 11.9 64 10
2005-03-14 09:20:33 51°18.881 2°53.516 66.7 12 64 10.1
2005-03-14 09:20:39 51°18.889 2°53.542 67.5 12.1 65 10.1
2005-03-14 09:20:43 51°18.894 2°53.562 67.3 12.1 65 10.1
2005-03-14 09:20:49 51°18.904 2°53.592 67.3 12.1 65 10.2
2005-03-14 09:20:54 51°18.911 2°53.613 67 12.1 65 10.2
2005-03-14 09:20:59 51°18.919 2°53.64 66.7 11.9 63 10.2
2005-03-14 09:21:03 51°18.925 2°53.658 65.5 11.9 63 10.1
2005-03-14 09:21:09 51°18.934 2°53.684 65.2 11.9 61 10.2
2005-03-14 09:21:13 51°18.94 2°53.704 65 11.9 63 10.2
2005-03-14 09:21:19 51°18.949 2°53.73 64.8 11.9 63 10.2
2005-03-14 09:21:23 51°18.955 2°53.748 64.4 11.9 62 10.2
2005-03-14 09:21:29 51°18.965 2°53.776 64.9 11.9 62 10.3
2005-03-14 09:21:33 51°18.972 2°53.797 64.5 11.9 61 10.2
2005-03-14 09:21:38 51°18.98 2°53.82 64.5 11.9 61 10.2
2005-03-14 09:21:44 51°18.989 2°53.847 63.8 11.9 62 10.3
2005-03-14 09:21:49 51°18.996 2°53.868 64.5 11.9 62 10.3
2005-03-14 09:21:53 51°19.003 2°53.889 64.3 11.9 62 10.3
2005-03-14 09:21:59 51°19.012 2°53.914 63.8 11.9 63 10.2
2005-03-14 09:22:03 51°19.019 2°53.932 64.3 11.9 63 10.2
2005-03-14 09:22:09 51°19.028 2°53.96 63.8 11.8 62 10.2
2005-03-14 09:22:13 51°19.035 2°53.981 64.3 11.8 61 10.2
2005-03-14 09:22:19 51°19.044 2°54.006 64.2 11.9 62 10.2
2005-03-14 09:22:23 51°19.049 2°54.025 64.6 11.9 62 10.2
2005-03-14 09:22:29 51°19.06 2°54.055 65.1 11.9 60 10.2
2005-03-14 09:22:33 51°19.066 2°54.073 64.7 11.9 63 10.3
2005-03-14 09:22:39 51°19.075 2°54.099 64.3 11.9 63 10.3
2005-03-14 09:22:43 51°19.081 2°54.117 64.2 11.9 63 10.3
2005-03-14 09:22:49 51°19.091 2°54.145 64 11.9 60 10.3
2005-03-14 09:22:54 51°19.099 2°54.168 63.9 11.9 62 10.3
2005-03-14 09:22:58 51°19.106 2°54.189 64.2 12 61 10.2
2005-03-14 09:23:03 51°19.113 2°54.209 63.8 12 61 10.3
2005-03-14 09:23:08 51°19.122 2°54.234 64 12 61 10.3
2005-03-14 09:23:14 51°19.131 2°54.26 63.8 12 60 10.2
2005-03-14 09:23:19 51°19.14 2°54.286 64 12 60 10.2
2005-03-14 09:23:23 51°19.146 2°54.302 63.7 12 60 10.2
2005-03-14 09:23:28 51°19.155 2°54.327 63.7 12.1 61 10.2
2005-03-14 09:23:33 51°19.164 2°54.35 64 12.1 60 10.2
2005-03-14 09:23:38 51°19.172 2°54.373 63.8 12.1 61 10.3
2005-03-14 09:23:43 51°19.179 2°54.394 64.1 12.1 61 10.1
2005-03-14 09:23:49 51°19.19 2°54.424 64.1 12 59 10.2
2005-03-14 09:23:53 51°19.197 2°54.443 64.6 12 59 10.2
2005-03-14 09:23:59 51°19.206 2°54.469 64.5 12.1 61 10.2
2005-03-14 09:24:04 51°19.214 2°54.492 64.5 12.1 61 10.3
2005-03-14 09:24:09 51°19.222 2°54.515 64.4 12.1 61 10.3
2005-03-14 09:24:13 51°19.23 2°54.536 64.4 12.1 60 10.3
2005-03-14 09:24:18 51°19.238 2°54.559 63.8 12 59 10.2
2005-03-14 09:24:23 51°19.247 2°54.583 64 12.2 60 10.3
2005-03-14 09:24:29 51°19.256 2°54.608 63.4 12.1 60 10.3
2005-03-14 09:24:33 51°19.264 2°54.628 63.6 12.1 59 10.4
2005-03-14 09:24:38 51°19.273 2°54.651 63.1 12.2 59 10.3
2005-03-14 09:24:43 51°19.281 2°54.672 63.1 12.2 60 10.3
2005-03-14 09:24:49 51°19.291 2°54.702 63.6 12.1 59 10.3
2005-03-14 09:24:53 51°19.298 2°54.721 64.3 12.1 60 10.3
2005-03-14 09:24:59 51°19.308 2°54.747 64.3 12.1 60 10.3
2005-03-14 09:25:04 51°19.316 2°54.771 64.1 12.2 60 10.3
2005-03-14 09:25:09 51°19.326 2°54.796 64.1 12.2 60 10.3
2005-03-14 09:25:13 51°19.333 2°54.815 64.1 12.2 60 10.3
2005-03-14 09:25:19 51°19.342 2°54.84 63.8 12.2 60 10.3
2005-03-14 09:25:24 51°19.351 2°54.864 63.8 12.2 59 10.4
2005-03-14 09:25:29 51°19.359 2°54.887 64.4 12.2 60 10.3
2005-03-14 09:25:34 51°19.368 2°54.91 64.1 12.2 60 10.3
2005-03-14 09:25:39 51°19.377 2°54.933 64 12.2 59 10.3
2005-03-14 09:25:43 51°19.383 2°54.952 63.9 12.2 59 10.3
2005-03-14 09:25:49 51°19.395 2°54.982 63.8 12.2 59 10.3
2005-03-14 09:25:54 51°19.402 2°55.003 63.8 12.2 60 10.3
2005-03-14 09:25:59 51°19.411 2°55.026 64 12.2 60 10.3
2005-03-14 09:26:03 51°19.419 2°55.047 64.1 12.1 60 10.4
2005-03-14 09:26:09 51°19.428 2°55.074 64.4 12 59 10.3
2005-03-14 09:26:13 51°19.435 2°55.092 64.4 12 60 10.3
2005-03-14 09:26:19 51°19.444 2°55.118 63.8 11.9 59 10.3
2005-03-14 09:26:23 51°19.452 2°55.139 64.3 12 59 10.3
2005-03-14 09:26:29 51°19.46 2°55.164 63.8 12 59 10.3
2005-03-14 09:26:33 51°19.468 2°55.184 63.8 11.8 59 10.3
2005-03-14 09:26:38 51°19.476 2°55.207 64.1 12 61 10.3
2005-03-14 09:26:43 51°19.484 2°55.228 63.8 12 60 10.3
2005-03-14 09:26:48 51°19.493 2°55.253 63.6 11.9 61 10.3
2005-03-14 09:26:53 51°19.501 2°55.276 63.8 11.9 61 10.2
2005-03-14 09:26:59 51°19.51 2°55.301 63.8 11.9 61 10.3
2005-03-14 09:27:03 51°19.517 2°55.319 63.8 11.9 61 10.3
2005-03-14 09:27:09 51°19.527 2°55.346 64 11.9 60 10.2
2005-03-14 09:27:13 51°19.534 2°55.367 63.6 11.9 60 10.3
2005-03-14 09:27:19 51°19.543 2°55.391 63.6 11.9 60 10.3
2005-03-14 09:27:24 51°19.551 2°55.414 63.4 11.8 59 10.3
2005-03-14 09:27:29 51°19.56 2°55.436 63.4 11.8 59 10.3
2005-03-14 09:27:34 51°19.568 2°55.459 63.1 11.8 59 10.2
2005-03-14 09:27:38 51°19.575 2°55.479 63.5 11.8 60 10.2
2005-03-14 09:27:43 51°19.583 2°55.499 63.4 11.9 60 10.2
2005-03-14 09:27:48 51°19.592 2°55.524 63.5 11.8 59 10.2
2005-03-14 09:27:53 51°19.6 2°55.547 63.5 11.8 60 10.2
2005-03-14 09:27:59 51°19.609 2°55.572 63.5 11.8 60 10.2
2005-03-14 09:28:04 51°19.617 2°55.594 63.5 11.8 59 10.2
2005-03-14 09:28:09 51°19.625 2°55.616 63.2 11.7 60 10.1
2005-03-14 09:28:13 51°19.633 2°55.636 63.6 11.6 60 10.1
2005-03-14 09:28:19 51°19.641 2°55.661 63.4 11.8 61 10.1
2005-03-14 09:28:23 51°19.648 2°55.679 63.5 11.7 60 10.2
2005-03-14 09:28:29 51°19.659 2°55.708 63 11.8 59 10.2
2005-03-14 09:28:34 51°19.667 2°55.728 62.7 11.8 59 10.1
2005-03-14 09:28:39 51°19.675 2°55.75 63 11.7 59 10.2
2005-03-14 09:28:44 51°19.683 2°55.773 62.6 11.7 59 10.1
2005-03-14 09:28:49 51°19.692 2°55.795 63 11.7 60 10.2
2005-03-14 09:28:54 51°19.7 2°55.817 63.2 11.7 59 10.1
2005-03-14 09:28:59 51°19.708 2°55.839 63 11.8 60 10.1
2005-03-14 09:29:03 51°19.716 2°55.859 63 11.6 60 10.1
2005-03-14 09:29:09 51°19.726 2°55.885 63.2 11.6 60 10.1
2005-03-14 09:29:14 51°19.733 2°55.906 63.1 11.7 58 10.1
2005-03-14 09:29:19 51°19.742 2°55.928 62.8 11.7 60 10.1
2005-03-14 09:29:23 51°19.749 2°55.948 63.1 11.6 60 10.2
2005-03-14 09:29:29 51°19.757 2°55.973 64 11.6 60 10.1
2005-03-14 09:29:33 51°19.764 2°55.993 64.7 11.7 61 10.1
2005-03-14 09:29:38 51°19.773 2°56.015 63.8 11.8 60 10.2
2005-03-14 09:29:43 51°19.78 2°56.036 64 11.6 61 10.1
2005-03-14 09:29:49 51°19.79 2°56.063 63.9 11.6 59 10.1
2005-03-14 09:29:53 51°19.797 2°56.082 63.4 11.6 59 10.1
2005-03-14 09:29:59 51°19.806 2°56.106 63.2 11.7 59 10.1
2005-03-14 09:30:03 51°19.814 2°56.126 63.4 11.4 57 10.1
2005-03-14 09:30:09 51°19.826 2°56.146 62.5 11.4 53 10.1
2005-03-14 09:30:14 51°19.837 2°56.164 56 11.4 46 10.1
2005-03-14 09:30:19 51°19.849 2°56.181 51.6 11.5 45 10.1
2005-03-14 09:30:23 51°19.859 2°56.193 48 11.5 45 10.1
2005-03-14 09:30:29 51°19.875 2°56.211 46.4 11.5 45 10.2
2005-03-14 09:30:33 51°19.886 2°56.225 44.1 11.5 35 10.1
2005-03-14 09:30:39 51°19.901 2°56.241 43.2 11.6 35 10.2
2005-03-14 09:30:43 51°19.912 2°56.252 42.3 11.6 33 10.2
2005-03-14 09:30:49 51°19.928 2°56.269 42 11.6 35 10.2
2005-03-14 09:30:53 51°19.94 2°56.282 41.7 11.7 33 10.3
2005-03-14 09:30:59 51°19.955 2°56.297 41.2 11.6 33 10.3
2005-03-14 09:31:04 51°19.97 2°56.313 41.2 11.6 33 10.3
2005-03-14 09:31:09 51°19.982 2°56.325 41 11.7 33 10.3
2005-03-14 09:31:13 51°19.994 2°56.338 41.2 11.6 34 10.3
2005-03-14 09:31:19 51°20.009 2°56.354 41.5 11.7 33 10.3
2005-03-14 09:31:23 51°20.022 2°56.367 41.3 11.7 34 10.4
2005-03-14 09:31:29 51°20.036 2°56.383 41.3 11.6 33 10.3
2005-03-14 09:31:33 51°20.049 2°56.395 41.3 11.6 33 10.3
2005-03-14 09:31:39 51°20.063 2°56.411 40.6 11.6 32 10.4
2005-03-14 09:31:42 51°20.073 2°56.42 41.3 11.6 32 10.3
2005-03-14 09:31:48 51°20.089 2°56.438 41.3 11.7 34 10.4
2005-03-14 09:31:53 51°20.102 2°56.45 41.4 11.7 34 10.4
2005-03-14 09:31:58 51°20.115 2°56.465 41.7 11.7 34 10.5
2005-03-14 09:32:04 51°20.132 2°56.483 42 11.7 34 10.5
2005-03-14 09:32:09 51°20.145 2°56.497 42.3 11.7 35 10.6
2005-03-14 09:32:13 51°20.157 2°56.511 42 11.7 35 10.5
2005-03-14 09:32:19 51°20.172 2°56.527 42.2 11.7 35 10.5
2005-03-14 09:32:23 51°20.183 2°56.539 42.4 11.7 35 10.5
2005-03-14 09:32:29 51°20.199 2°56.556 42.3 11.7 34 10.5
2005-03-14 09:32:33 51°20.21 2°56.569 41.7 11.6 34 10.4
2005-03-14 09:32:39 51°20.225 2°56.585 42 11.6 34 10.4
2005-03-14 09:32:43 51°20.237 2°56.598 42 11.6 34 10.4
2005-03-14 09:32:49 51°20.252 2°56.613 41.9 11.7 34 10.4
2005-03-14 09:32:53 51°20.264 2°56.626 41.8 11.7 34 10.4
2005-03-14 09:32:59 51°20.279 2°56.642 41.6 11.7 34 10.5
2005-03-14 09:33:03 51°20.291 2°56.655 41.6 11.6 34 10.5
2005-03-14 09:33:09 51°20.306 2°56.67 41.5 11.5 34 10.5
2005-03-14 09:33:13 51°20.316 2°56.683 41.7 11.5 34 10.5
2005-03-14 09:33:19 51°20.332 2°56.699 42 11.6 35 10.5
2005-03-14 09:33:24 51°20.345 2°56.715 42.1 11.6 34 10.5
2005-03-14 09:33:29 51°20.358 2°56.729 43 11.6 35 10.6
2005-03-14 09:33:33 51°20.37 2°56.743 43.5 11.5 35 10.5
2005-03-14 09:33:38 51°20.382 2°56.757 44.4 11.6 37 10.5
2005-03-14 09:33:43 51°20.394 2°56.773 45 11.5 39 10.5
2005-03-14 09:33:49 51°20.41 2°56.793 45.4 11.6 37 10.6
2005-03-14 09:33:53 51°20.42 2°56.806 45.4 11.6 38 10.6
2005-03-14 09:33:59 51°20.435 2°56.823 45.4 11.6 37 10.6
2005-03-14 09:34:03 51°20.446 2°56.838 45.4 11.6 38 10.6
2005-03-14 09:34:09 51°20.46 2°56.855 45.3 11.6 38 10.5
2005-03-14 09:34:13 51°20.472 2°56.868 45.2 11.6 37 10.7
2005-03-14 09:34:19 51°20.486 2°56.885 45 11.5 37 10.6
2005-03-14 09:34:24 51°20.498 2°56.901 44.7 11.7 37 10.6
2005-03-14 09:34:29 51°20.511 2°56.916 44.6 11.6 38 10.7
2005-03-14 09:34:34 51°20.524 2°56.932 44.9 11.6 37 10.8
2005-03-14 09:34:39 51°20.537 2°56.948 45 11.6 37 10.6
2005-03-14 09:34:43 51°20.548 2°56.962 45.3 11.6 37 10.6
2005-03-14 09:34:49 51°20.562 2°56.979 45.4 11.6 38 10.6
2005-03-14 09:34:54 51°20.575 2°56.995 45.2 11.6 38 10.6
2005-03-14 09:34:59 51°20.588 2°57.01 44.7 11.6 36 10.7
2005-03-14 09:35:03 51°20.598 2°57.022 44.8 11.6 37 10.7
2005-03-14 09:35:09 51°20.614 2°57.041 44.9 11.6 37 10.7
2005-03-14 09:35:13 51°20.624 2°57.053 44.7 11.6 37 10.7
2005-03-14 09:35:19 51°20.64 2°57.071 45 11.6 37 10.7
2005-03-14 09:35:23 51°20.65 2°57.084 45.5 11.7 37 10.7
2005-03-14 09:35:29 51°20.666 2°57.102 45.6 11.7 37 10.8
2005-03-14 09:35:33 51°20.677 2°57.116 45.6 11.7 37 10.7
2005-03-14 09:35:38 51°20.69 2°57.132 45.6 11.6 38 10.9
2005-03-14 09:35:43 51°20.701 2°57.146 45.3 11.6 37 10.8
2005-03-14 09:35:48 51°20.715 2°57.163 45.3 11.6 37 10.8
2005-03-14 09:35:53 51°20.728 2°57.178 44.8 11.6 37 10.8
2005-03-14 09:35:59 51°20.743 2°57.195 45.1 11.7 37 10.7
2005-03-14 09:36:03 51°20.753 2°57.207 45 11.7 37 10.8
2005-03-14 09:36:09 51°20.769 2°57.226 45.1 11.7 37 10.8
2005-03-14 09:36:14 51°20.781 2°57.242 45.2 11.7 36 10.9
2005-03-14 09:36:18 51°20.793 2°57.255 45.2 11.7 36 10.9
2005-03-14 09:36:23 51°20.806 2°57.271 45.3 11.7 36 10.9
2005-03-14 09:36:29 51°20.82 2°57.288 45.2 11.6 37 10.9
2005-03-14 09:36:34 51°20.834 2°57.303 44.9 11.7 35 10.9
2005-03-14 09:36:38 51°20.845 2°57.316 44.7 11.6 36 10.9
2005-03-14 09:36:44 51°20.86 2°57.333 45 11.6 36 10.9
2005-03-14 09:36:47 51°20.868 2°57.342 45 11.6 36 11
2005-03-14 09:36:54 51°20.885 2°57.364 45.3 11.7 36 10.9
2005-03-14 09:36:59 51°20.898 2°57.379 45.4 11.6 37 11.2
2005-03-14 09:37:03 51°20.909 2°57.392 45 11.7 35 10.9
2005-03-14 09:37:09 51°20.926 2°57.412 45 11.7 37 11
2005-03-14 09:37:13 51°20.935 2°57.423 45.3 11.7 37 11
2005-03-14 09:37:19 51°20.95 2°57.442 46.3 11.6 38 11
2005-03-14 09:37:23 51°20.961 2°57.458 46.9 11.6 40 11
2005-03-14 09:37:29 51°20.975 2°57.476 47.1 11.6 40 11
2005-03-14 09:37:33 51°20.986 2°57.49 47.6 11.7 40 11
2005-03-14 09:37:39 51°21 2°57.508 47.8 11.7 40 11.2
2005-03-14 09:37:44 51°21.012 2°57.525 47.7 11.7 40 11
2005-03-14 09:37:49 51°21.024 2°57.541 47.6 11.6 39 11.1
2005-03-14 09:37:53 51°21.034 2°57.554 47.5 11.6 40 11.1
2005-03-14 09:37:59 51°21.049 2°57.573 47.2 11.7 39 11.1
2005-03-14 09:38:03 51°21.059 2°57.587 47.3 11.6 40 11.1
2005-03-14 09:38:09 51°21.075 2°57.608 47.2 11.7 40 11.1
2005-03-14 09:38:13 51°21.085 2°57.621 47.2 11.7 38 11
2005-03-14 09:38:19 51°21.099 2°57.639 47 11.7 38 11.1
2005-03-14 09:38:24 51°21.111 2°57.656 47 11.7 38 11.1
2005-03-14 09:38:29 51°21.125 2°57.673 47.2 11.7 39 11.1
2005-03-14 09:38:33 51°21.135 2°57.687 47.5 11.7 40 11.1
2005-03-14 09:38:39 51°21.149 2°57.705 47.9 11.7 40 11.2
2005-03-14 09:38:43 51°21.16 2°57.72 47.5 11.7 40 11.2
2005-03-14 09:38:49 51°21.175 2°57.739 47.2 11.7 40 11.2
2005-03-14 09:38:53 51°21.185 2°57.752 47.1 11.7 40 11.3
2005-03-14 09:38:59 51°21.199 2°57.77 47.1 11.7 40 11.2
2005-03-14 09:39:03 51°21.209 2°57.783 47.1 11.7 40 11.3
2005-03-14 09:39:08 51°21.223 2°57.801 46.8 11.7 40 11.2
2005-03-14 09:39:14 51°21.238 2°57.822 46.9 11.7 40 11.2
2005-03-14 09:39:19 51°21.249 2°57.837 47.1 11.7 40 11.3
2005-03-14 09:39:23 51°21.259 2°57.851 47.1 11.8 39 11.3
2005-03-14 09:39:29 51°21.275 2°57.872 47.1 11.8 40 11.3
2005-03-14 09:39:33 51°21.285 2°57.885 46.9 11.8 40 11.4
2005-03-14 09:39:39 51°21.299 2°57.904 47 11.7 40 11.3
2005-03-14 09:39:43 51°21.309 2°57.917 47.1 11.8 39 11.3
2005-03-14 09:39:49 51°21.324 2°57.937 47.4 11.8 42 11.4
2005-03-14 09:39:53 51°21.334 2°57.953 47.4 11.8 39 11.3
2005-03-14 09:39:59 51°21.348 2°57.972 47.6 11.8 40 11.3
2005-03-14 09:40:04 51°21.361 2°57.988 47.6 11.8 40 11.4
2005-03-14 09:40:09 51°21.373 2°58.005 47.7 11.8 40 11.4
2005-03-14 09:40:13 51°21.385 2°58.02 47.3 11.8 39 11.4
2005-03-14 09:40:19 51°21.399 2°58.038 46.8 11.9 40 11.4
2005-03-14 09:40:23 51°21.41 2°58.054 46.9 11.9 40 11.5
2005-03-14 09:40:29 51°21.423 2°58.073 47.1 11.9 41 11.3
2005-03-14 09:40:33 51°21.435 2°58.089 47.6 11.9 41 11.3
2005-03-14 09:40:39 51°21.448 2°58.109 48.1 11.9 41 11.5
2005-03-14 09:40:43 51°21.457 2°58.123 48.9 11.9 43 11.5
2005-03-14 09:40:49 51°21.473 2°58.147 49 11.9 43 11.5
2005-03-14 09:40:53 51°21.483 2°58.161 49.2 12 45 11.5
2005-03-14 09:40:59 51°21.496 2°58.182 49.6 11.9 43 11.5
2005-03-14 09:41:03 51°21.507 2°58.199 49.8 11.9 45 11.5
2005-03-14 09:41:09 51°21.519 2°58.219 49.8 11.9 44 11.6
2005-03-14 09:41:14 51°21.531 2°58.238 49.7 12 44 11.5
2005-03-14 09:41:18 51°21.542 2°58.254 49.7 12 45 11.5
2005-03-14 09:41:24 51°21.555 2°58.275 49.9 11.9 45 11.5
2005-03-14 09:41:29 51°21.567 2°58.294 49.9 11.9 45 11.5
2005-03-14 09:41:33 51°21.577 2°58.31 50 12.1 45 11.6
2005-03-14 09:41:38 51°21.589 2°58.329 49.6 12.1 44 11.5
2005-03-14 09:41:43 51°21.601 2°58.349 49.7 12.1 44 11.5
2005-03-14 09:41:49 51°21.615 2°58.371 49.5 12 45 11.6
2005-03-14 09:41:54 51°21.626 2°58.388 49.3 12 45 11.4
2005-03-14 09:41:59 51°21.638 2°58.407 49.4 12 45 11.5
2005-03-14 09:42:03 51°21.649 2°58.424 49.3 12.1 44 11.5
2005-03-14 09:42:09 51°21.664 2°58.446 49.1 12.2 44 11.5
2005-03-14 09:42:13 51°21.673 2°58.461 48.7 12.2 44 11.6
2005-03-14 09:42:19 51°21.687 2°58.481 48.6 12.2 44 11.5
2005-03-14 09:42:23 51°21.697 2°58.496 48.2 12.1 43 11.4
2005-03-14 09:42:29 51°21.711 2°58.518 48.4 12.1 43 11.5
2005-03-14 09:42:34 51°21.724 2°58.536 48.2 12.1 43 11.5
2005-03-14 09:42:39 51°21.736 2°58.554 48.3 12.1 45 11.7
2005-03-14 09:42:43 51°21.746 2°58.569 48.4 12.1 43 11.6
2005-03-14 09:42:49 51°21.761 2°58.593 48.6 12.1 43 11.5
2005-03-14 09:42:53 51°21.771 2°58.608 49.1 12 44 11.5
2005-03-14 09:42:58 51°21.783 2°58.627 49.4 12 45 11.5
2005-03-14 09:43:03 51°21.795 2°58.647 50 12.1 45 11.5
2005-03-14 09:43:09 51°21.807 2°58.668 49.8 12.1 45 11.6
2005-03-14 09:43:14 51°21.819 2°58.687 49.7 12.1 45 11.6
2005-03-14 09:43:19 51°21.831 2°58.706 49.5 12.1 46 11.6
2005-03-14 09:43:23 51°21.842 2°58.723 49.5 12.1 45 11.5
2005-03-14 09:43:28 51°21.853 2°58.742 49.2 12 45 11.7
2005-03-14 09:43:33 51°21.865 2°58.761 49.2 12 45 11.7
2005-03-14 09:43:39 51°21.879 2°58.781 48.9 12.1 45 11.5
2005-03-14 09:43:42 51°21.887 2°58.794 48.4 12.1 45 11.5
2005-03-14 09:43:48 51°21.901 2°58.816 48.7 12 44 11.5
2005-03-14 09:43:53 51°21.914 2°58.835 49.1 12 44 11.6
2005-03-14 09:43:59 51°21.927 2°58.855 49.3 12 44 11.5
2005-03-14 09:44:03 51°21.938 2°58.872 49 12 44 11.6
2005-03-14 09:44:09 51°21.951 2°58.892 48.9 12 44 11.5
2005-03-14 09:44:14 51°21.963 2°58.911 48.9 12.1 44 11.5
2005-03-14 09:44:19 51°21.974 2°58.929 49.3 12 44 11.6
2005-03-14 09:44:23 51°21.985 2°58.946 49.2 11.9 44 11.5
2005-03-14 09:44:29 51°21.998 2°58.967 49.1 11.9 44 11.6
2005-03-14 09:44:33 51°22.009 2°58.983 49.2 11.9 44 11.6
2005-03-14 09:44:38 51°22.021 2°59.002 49 12 45 11.6
2005-03-14 09:44:44 51°22.034 2°59.023 49.4 12 45 11.5
2005-03-14 09:44:49 51°22.046 2°59.041 49.3 12 45 11.6
2005-03-14 09:44:53 51°22.057 2°59.058 49.4 12 45 11.6
2005-03-14 09:44:58 51°22.069 2°59.076 49.3 12 45 11.6
2005-03-14 09:45:03 51°22.081 2°59.095 49 12 45 11.5
2005-03-14 09:45:09 51°22.094 2°59.115 49.3 12.1 45 11.5
2005-03-14 09:45:14 51°22.106 2°59.133 49 12 44 11.6
2005-03-14 09:45:19 51°22.117 2°59.153 48.8 11.9 44 11.5
2005-03-14 09:45:23 51°22.128 2°59.169 49.2 11.9 44 11.5
2005-03-14 09:45:29 51°22.142 2°59.192 49.3 11.9 44 11.4
2005-03-14 09:45:33 51°22.151 2°59.206 49.7 11.9 45 11.6
2005-03-14 09:45:39 51°22.164 2°59.227 49.6 11.9 44 11.6
2005-03-14 09:45:43 51°22.175 2°59.244 49.5 11.9 44 11.7
2005-03-14 09:45:49 51°22.188 2°59.264 49.4 11.9 45 11.9
2005-03-14 09:45:53 51°22.199 2°59.28 49.3 11.9 45 11.8
2005-03-14 09:45:59 51°22.212 2°59.301 49.3 11.9 45 11.8
2005-03-14 09:46:03 51°22.222 2°59.318 49.3 12 45 11.8
2005-03-14 09:46:09 51°22.235 2°59.337 49.3 11.9 44 11.8
2005-03-14 09:46:14 51°22.247 2°59.356 49.4 11.9 45 11.7
2005-03-14 09:46:19 51°22.258 2°59.375 49.6 11.9 45 11.8
2005-03-14 09:46:24 51°22.27 2°59.394 49.5 11.9 45 11.6
2005-03-14 09:46:29 51°22.281 2°59.412 49.2 11.9 45 11.7
2005-03-14 09:46:33 51°22.292 2°59.429 49.4 11.9 45 11.7
2005-03-14 09:46:39 51°22.305 2°59.449 49.3 11.9 43 11.8
2005-03-14 09:46:43 51°22.315 2°59.466 49.3 11.8 46 11.8
2005-03-14 09:46:49 51°22.329 2°59.486 49.6 11.8 44 12
2005-03-14 09:46:54 51°22.34 2°59.505 49.6 11.8 44 11.8
2005-03-14 09:46:59 51°22.352 2°59.523 49.4 11.9 44 11.7
2005-03-14 09:47:03 51°22.362 2°59.54 49.4 11.8 44 12
2005-03-14 09:47:09 51°22.376 2°59.562 49.4 11.8 45 12
2005-03-14 09:47:13 51°22.386 2°59.576 49.1 11.8 44 12.1
2005-03-14 09:47:19 51°22.399 2°59.596 49.1 11.8 44 12.1
2005-03-14 09:47:24 51°22.41 2°59.615 48.8 11.8 44 12
2005-03-14 09:47:29 51°22.422 2°59.633 48.7 11.8 44 12.1
2005-03-14 09:47:33 51°22.432 2°59.649 48.8 11.8 44 12
2005-03-14 09:47:39 51°22.445 2°59.67 48.9 11.8 45 12
2005-03-14 09:47:44 51°22.457 2°59.688 49.1 11.8 45 12.1
2005-03-14 09:47:49 51°22.469 2°59.706 49.3 11.8 44 12
2005-03-14 09:47:54 51°22.481 2°59.724 49.3 11.8 44 12.1
2005-03-14 09:47:58 51°22.491 2°59.741 49.1 11.8 44 12.2
2005-03-14 09:48:03 51°22.503 2°59.759 48.7 11.8 44 12.2
2005-03-14 09:48:09 51°22.516 2°59.779 49 11.8 44 12.2
2005-03-14 09:48:14 51°22.528 2°59.797 49 11.9 44 12.2
2005-03-14 09:48:19 51°22.54 2°59.816 49.2 11.9 44 12.2
2005-03-14 09:48:24 51°22.551 2°59.834 48.9 11.9 44 12.2
2005-03-14 09:48:29 51°22.563 2°59.852 49 11.8 43 12.2
2005-03-14 09:48:34 51°22.575 2°59.871 48.6 11.8 44 12.2
2005-03-14 09:48:39 51°22.587 2°59.889 48.7 11.8 44 12.2
2005-03-14 09:48:43 51°22.596 2°59.904 48.5 11.9 46 12.1
2005-03-14 09:48:49 51°22.61 2°59.926 49 11.8 46 12
2005-03-14 09:48:53 51°22.62 2°59.942 49.4 11.8 46 12.1
2005-03-14 09:48:58 51°22.632 2°59.961 49.5 11.8 44 12.1
2005-03-14 09:49:03 51°22.644 2°59.979 49.2 11.9 45 12
2005-03-14 09:49:09 51°22.656 3°0 49.2 11.9 45 12
2005-03-14 09:49:13 51°22.667 3°0.017 49.5 11.9 45 12.1
2005-03-14 09:49:19 51°22.68 3°0.037 49.9 11.9 46 12.1
2005-03-14 09:49:23 51°22.69 3°0.054 49.1 11.9 45 12.2
2005-03-14 09:49:29 51°22.703 3°0.074 49.4 12 45 12.1
2005-03-14 09:49:34 51°22.715 3°0.093 49.1 12 44 12.1
2005-03-14 09:49:39 51°22.726 3°0.112 49.7 12 46 12.2
2005-03-14 09:49:44 51°22.738 3°0.131 49.5 12 46 12.1
2005-03-14 09:49:49 51°22.75 3°0.149 49.2 12 46 12
2005-03-14 09:49:53 51°22.761 3°0.166 49.3 12 46 12.2
2005-03-14 09:49:59 51°22.773 3°0.187 49.6 12 46 12.4
2005-03-14 09:50:03 51°22.784 3°0.204 49.8 12 45 12.4
2005-03-14 09:50:09 51°22.797 3°0.225 49.3 12 44 12.4
2005-03-14 09:50:14 51°22.809 3°0.243 49.4 12 45 12.3
2005-03-14 09:50:19 51°22.821 3°0.262 49.2 12 44 12.5
2005-03-14 09:50:23 51°22.83 3°0.277 49.2 12 44 12.5
2005-03-14 09:50:29 51°22.846 3°0.3 49.1 12 44 12.6
2005-03-14 09:50:33 51°22.855 3°0.315 48.8 12 43 12.6
2005-03-14 09:50:39 51°22.87 3°0.338 48.6 12 43 12.5
2005-03-14 09:50:43 51°22.878 3°0.35 48.9 12 44 12.3
2005-03-14 09:50:49 51°22.892 3°0.372 48.9 12 44 12.6
2005-03-14 09:50:53 51°22.903 3°0.389 49 12 44 12.7
2005-03-14 09:50:59 51°22.916 3°0.409 49.1 11.9 44 12.7
2005-03-14 09:51:03 51°22.927 3°0.426 49.3 12 45 12.7
2005-03-14 09:51:09 51°22.94 3°0.447 49.4 11.9 45 12.8
2005-03-14 09:51:13 51°22.95 3°0.464 49.6 12 46 12.7
2005-03-14 09:51:19 51°22.963 3°0.485 49.8 12.1 45 12.7
2005-03-14 09:51:24 51°22.976 3°0.504 49.8 12.1 46 12.7
2005-03-14 09:51:29 51°22.988 3°0.524 49.5 12.1 46 12.9
2005-03-14 09:51:33 51°22.998 3°0.538 49.2 12 44 12.8
2005-03-14 09:51:39 51°23.011 3°0.559 48.7 12 44 12.9
2005-03-14 09:51:43 51°23.022 3°0.576 49.1 12 43 12.8
2005-03-14 09:51:47 51°23.03 3°0.589 48.9 12 44 12.9
2005-03-14 09:51:53 51°23.046 3°0.613 48.9 11.9 44 12.9
2005-03-14 09:51:59 51°23.059 3°0.633 49 12 44 12.9
2005-03-14 09:52:03 51°23.069 3°0.648 49.3 12 44 13
2005-03-14 09:52:09 51°23.083 3°0.67 49.1 12 44 13.1
2005-03-14 09:52:13 51°23.094 3°0.687 49.2 12 45 13
2005-03-14 09:52:18 51°23.106 3°0.705 49.1 12 43 13.1
2005-03-14 09:52:23 51°23.117 3°0.721 49.1 12 43 13.2
2005-03-14 09:52:29 51°23.131 3°0.744 49 12 43 13.2
2005-03-14 09:52:33 51°23.142 3°0.76 49 12 43 13.3
2005-03-14 09:52:39 51°23.156 3°0.78 48.9 12 43 13.4
2005-03-14 09:52:42 51°23.164 3°0.793 48.5 11.9 44 13.3
2005-03-14 09:52:49 51°23.18 3°0.817 49.1 12 43 13.4
2005-03-14 09:52:53 51°23.191 3°0.833 48.9 12 43 13.3
2005-03-14 09:52:59 51°23.204 3°0.853 49 12 43 13.4
2005-03-14 09:53:03 51°23.215 3°0.87 49 12 43 13.3
2005-03-14 09:53:09 51°23.228 3°0.89 49 12 44 13.3
2005-03-14 09:53:13 51°23.239 3°0.907 49.4 12 44 13.4
2005-03-14 09:53:18 51°23.251 3°0.925 49.4 12 44 13.5
2005-03-14 09:53:23 51°23.262 3°0.942 49.5 11.9 44 13.7
2005-03-14 09:53:29 51°23.276 3°0.964 49.8 11.9 44 13.5
2005-03-14 09:53:33 51°23.287 3°0.98 49.3 12 43 13.6
2005-03-14 09:53:39 51°23.301 3°1.003 49 11.9 44 13.7
2005-03-14 09:53:44 51°23.312 3°1.019 49.6 11.9 44 13.6
2005-03-14 09:53:49 51°23.324 3°1.037 49.3 11.9 44 13.7
2005-03-14 09:53:53 51°23.335 3°1.053 49.5 12 44 13.8
2005-03-14 09:53:59 51°23.348 3°1.073 49.3 11.8 43 13.9
2005-03-14 09:54:03 51°23.359 3°1.09 49.5 11.8 43 13.7
2005-03-14 09:54:09 51°23.373 3°1.111 49.5 11.9 44 13.8
2005-03-14 09:54:13 51°23.383 3°1.125 48.7 11.9 44 13.8
2005-03-14 09:54:19 51°23.397 3°1.145 48.6 11.9 42 14
2005-03-14 09:54:23 51°23.406 3°1.159 48.6 11.9 42 13.8
2005-03-14 09:54:29 51°23.422 3°1.182 48.7 11.9 43 14
2005-03-14 09:54:33 51°23.431 3°1.196 49.2 11.8 43 14
2005-03-14 09:54:39 51°23.445 3°1.216 49.3 11.8 43 13.9
2005-03-14 09:54:43 51°23.454 3°1.23 49.4 11.9 43 14
2005-03-14 09:54:49 51°23.47 3°1.254 49.4 11.7 43 14.1
2005-03-14 09:54:53 51°23.48 3°1.268 49.4 11.7 43 14.1
2005-03-14 09:54:59 51°23.493 3°1.287 49.3 11.8 43 14.2
2005-03-14 09:55:04 51°23.505 3°1.305 49.3 11.8 44 14.2
2005-03-14 09:55:08 51°23.515 3°1.322 49.4 11.8 43 14.1
2005-03-14 09:55:13 51°23.527 3°1.34 49.4 11.8 45 14.1
2005-03-14 09:55:19 51°23.54 3°1.36 49.7 11.8 44 14.2
2005-03-14 09:55:23 51°23.549 3°1.374 49.5 11.8 44 14.3
2005-03-14 09:55:29 51°23.564 3°1.395 49.5 11.8 43 14.3
2005-03-14 09:55:33 51°23.575 3°1.411 49 11.8 43 14.4
2005-03-14 09:55:39 51°23.588 3°1.431 48.7 11.8 43 14.2
2005-03-14 09:55:44 51°23.601 3°1.45 48.6 11.8 43 14.4
2005-03-14 09:55:49 51°23.612 3°1.466 48.4 11.8 42 14.4
2005-03-14 09:55:53 51°23.623 3°1.481 48.5 11.8 42 14.4
2005-03-14 09:55:59 51°23.636 3°1.5 48.3 11.8 42 14.4
2005-03-14 09:56:04 51°23.65 3°1.52 48.8 11.8 42 14.5
2005-03-14 09:56:09 51°23.661 3°1.536 48.9 11.8 41 14.5
2005-03-14 09:56:13 51°23.672 3°1.551 48.8 11.8 41 14.7
2005-03-14 09:56:19 51°23.685 3°1.57 48.6 11.7 41 14.5
2005-03-14 09:56:23 51°23.696 3°1.585 49.1 11.7 41 14.6
2005-03-14 09:56:29 51°23.709 3°1.604 48.7 11.7 42 14.7
2005-03-14 09:56:33 51°23.72 3°1.62 48.9 11.7 41 14.7
2005-03-14 09:56:38 51°23.732 3°1.637 48.8 11.8 42 14.8
2005-03-14 09:56:43 51°23.744 3°1.655 49 11.7 43 14.7
2005-03-14 09:56:49 51°23.758 3°1.674 49.4 11.7 43 14.8
2005-03-14 09:56:53 51°23.767 3°1.688 49.1 11.7 43 14.8
2005-03-14 09:56:59 51°23.782 3°1.709 49 11.8 43 14.8
2005-03-14 09:57:03 51°23.793 3°1.725 48.9 11.7 42 14.9
2005-03-14 09:57:09 51°23.807 3°1.743 49.3 11.7 42 15
2005-03-14 09:57:13 51°23.817 3°1.758 49.3 11.7 42 15
2005-03-14 09:57:19 51°23.831 3°1.777 49.3 11.6 41 14.9
2005-03-14 09:57:23 51°23.842 3°1.792 49 11.6 41 14.9
2005-03-14 09:57:28 51°23.853 3°1.81 49 11.6 43 15
2005-03-14 09:57:33 51°23.865 3°1.827 49.6 11.6 43 15.1
2005-03-14 09:57:39 51°23.878 3°1.847 50 11.7 43 15.1
2005-03-14 09:57:43 51°23.888 3°1.86 50.2 11.7 43 15.1
2005-03-14 09:57:49 51°23.902 3°1.881 50 11.6 42 15.2
2005-03-14 09:57:54 51°23.914 3°1.898 49.3 11.7 41 15
2005-03-14 09:57:59 51°23.927 3°1.915 49.3 11.6 41 15.1
2005-03-14 09:58:03 51°23.938 3°1.93 49 11.6 40 15.2
2005-03-14 09:58:09 51°23.951 3°1.948 49.1 11.6 40 15.1
2005-03-14 09:58:13 51°23.962 3°1.964 49.3 11.6 42 15.2
2005-03-14 09:58:19 51°23.976 3°1.982 49.3 11.6 42 15.2
2005-03-14 09:58:23 51°23.986 3°1.998 49.5 11.6 42 15.4
2005-03-14 09:58:29 51°24.001 3°2.018 49.6 11.6 42 15.3
2005-03-14 09:58:33 51°24.01 3°2.032 49.7 11.6 41 15.3
2005-03-14 09:58:39 51°24.024 3°2.051 49.7 11.6 41 15.4
2005-03-14 09:58:43 51°24.034 3°2.065 49.3 11.7 42 15.4
2005-03-14 09:58:49 51°24.048 3°2.085 49.5 11.7 41 15.4
2005-03-14 09:58:53 51°24.059 3°2.101 49.8 11.7 41 15.4
2005-03-14 09:58:59 51°24.072 3°2.12 49.9 11.8 43 15.3
2005-03-14 09:59:03 51°24.082 3°2.134 49.6 11.7 44 15.3
2005-03-14 09:59:08 51°24.095 3°2.154 50.2 11.8 42 15.3
2005-03-14 09:59:13 51°24.107 3°2.172 50.3 11.9 44 15.4
2005-03-14 09:59:19 51°24.121 3°2.192 50.1 11.9 43 15.5
2005-03-14 09:59:24 51°24.133 3°2.209 49.8 11.9 43 15.5
2005-03-14 09:59:29 51°24.144 3°2.228 50 11.9 43 15.4
2005-03-14 09:59:34 51°24.156 3°2.246 50.6 11.9 43 15.5
2005-03-14 09:59:39 51°24.168 3°2.264 49.8 11.9 43 15.4
2005-03-14 09:59:43 51°24.18 3°2.281 49.6 12 42 15.4
2005-03-14 09:59:49 51°24.193 3°2.3 49.7 12.1 43 15.5
2005-03-14 09:59:54 51°24.207 3°2.32 49.4 12.1 43 15.4
2005-03-14 09:59:59 51°24.218 3°2.337 49.8 12.1 42 15.5
2005-03-14 10:00:04 51°24.231 3°2.355 49.6 12.1 42 15.5
2005-03-14 10:00:09 51°24.243 3°2.373 49.1 12.2 41 15.5
2005-03-14 10:00:14 51°24.256 3°2.391 48.8 12.1 43 15.5
2005-03-14 10:00:19 51°24.268 3°2.409 49.3 12.1 43 15.6
2005-03-14 10:00:23 51°24.278 3°2.424 49 12.1 43 15.6
2005-03-14 10:00:29 51°24.293 3°2.445 48.9 12.1 42 15.6
2005-03-14 10:00:33 51°24.303 3°2.462 49.3 12.1 44 15.6
2005-03-14 10:00:39 51°24.317 3°2.481 49.7 12.1 44 15.7
2005-03-14 10:00:43 51°24.326 3°2.496 49.8 12.2 43 15.7
2005-03-14 10:00:49 51°24.342 3°2.517 49.6 12.2 43 15.9
2005-03-14 10:00:53 51°24.352 3°2.535 49.6 12.1 43 15.9
2005-03-14 10:00:59 51°24.367 3°2.555 49.5 12.2 41 16.1
2005-03-14 10:01:04 51°24.379 3°2.573 49 12.2 41 16.2
2005-03-14 10:01:09 51°24.391 3°2.591 49.5 12.1 43 16.6
2005-03-14 10:01:13 51°24.402 3°2.608 49.3 12.2 42 16.7
2005-03-14 10:01:19 51°24.416 3°2.628 49 12.2 43 16.9
2005-03-14 10:01:23 51°24.426 3°2.642 48.7 12.2 42 17.1
2005-03-14 10:01:29 51°24.441 3°2.665 48.8 12.2 43 17.4
2005-03-14 10:01:33 51°24.453 3°2.681 48.9 12.3 42 17.7
2005-03-14 10:01:39 51°24.467 3°2.701 48.9 12.3 42 17.8
2005-03-14 10:01:43 51°24.477 3°2.716 48.9 12.3 42 18
2005-03-14 10:01:49 51°24.492 3°2.738 48.9 12.4 42 18
2005-03-14 10:01:54 51°24.506 3°2.758 48.9 12.3 42 18
2005-03-14 10:01:59 51°24.517 3°2.775 48.9 12.3 42 18.2
2005-03-14 10:02:04 51°24.53 3°2.794 49.1 12.3 42 18.2
2005-03-14 10:02:09 51°24.542 3°2.812 49.7 12.3 44 18.2
2005-03-14 10:02:13 51°24.553 3°2.829 49.9 12.3 44 18.1
2005-03-14 10:02:19 51°24.567 3°2.851 50.3 12.3 44 18.2
2005-03-14 10:02:24 51°24.58 3°2.869 49.4 12.3 44 18.4
2005-03-14 10:02:29 51°24.591 3°2.888 49.5 12.4 44 18.4
2005-03-14 10:02:33 51°24.603 3°2.905 49.8 12.4 44 18.1
2005-03-14 10:02:39 51°24.616 3°2.926 49.4 12.3 44 18.1
2005-03-14 10:02:43 51°24.627 3°2.941 49.6 12.3 44 18.2
2005-03-14 10:02:49 51°24.641 3°2.964 49.8 12.3 44 18
2005-03-14 10:02:54 51°24.654 3°2.982 49.9 12.3 44 17.9
2005-03-14 10:02:59 51°24.665 3°3.001 49.4 12.3 44 17.9
2005-03-14 10:03:03 51°24.675 3°3.016 49.4 12.3 45 17.4
2005-03-14 10:03:09 51°24.69 3°3.039 48.9 12.2 42 17.5
2005-03-14 10:03:13 51°24.701 3°3.056 49.5 12.2 42 17.2
2005-03-14 10:03:19 51°24.714 3°3.077 49.3 12.3 44 17.2
2005-03-14 10:03:24 51°24.727 3°3.096 49.6 12.3 45 17
2005-03-14 10:03:29 51°24.74 3°3.117 49.9 12.2 44 16.8
2005-03-14 10:03:33 51°24.75 3°3.132 50.3 12.3 44 16.6
2005-03-14 10:03:39 51°24.763 3°3.153 49.5 12.3 44 16.2
2005-03-14 10:03:44 51°24.775 3°3.172 49.9 12.3 44 15.9
2005-03-14 10:03:49 51°24.787 3°3.192 49.8 12.2 45 15.5
2005-03-14 10:03:54 51°24.799 3°3.211 50 12.2 46 15.2
2005-03-14 10:03:59 51°24.81 3°3.23 50.5 12.1 47 15
2005-03-14 10:04:03 51°24.82 3°3.249 51.6 12.1 48 14.5
2005-03-14 10:04:09 51°24.832 3°3.27 52.2 12.1 48 14.3